Time;durP1;ratioP1;P1;durP2;ratioP2;P2;SDS_P1;SDS_P2;PMS_P1;PMS_P2;Temp;Humidity;BMP_temperature;BMP_pressure;BME280_temperature;BME280_humidity;BME280_pressure;Samples;Min_cycle;Max_cycle;Signal;HPM_P1;HPM_P2
2021/06/18 00:06:33;;;;;;;8.52;5.75;;;20.60;69.00;;;;;;20748700;28;20092;-56
2021/06/18 00:16:35;;;;;;;8.17;5.07;;;20.50;69.40;;;;;;20747590;28;20393;-53
2021/06/18 00:26:37;;;;;;;8.70;7.15;;;20.50;69.10;;;;;;20748075;28;20081;-54
2021/06/18 00:36:39;;;;;;;10.57;7.35;;;20.40;69.10;;;;;;20747673;28;20446;-55
2021/06/18 00:46:41;;;;;;;7.90;6.60;;;20.30;70.10;;;;;;20747030;28;20046;-55
2021/06/18 00:56:44;;;;;;;9.57;7.95;;;20.20;70.80;;;;;;20746355;28;20053;-55
2021/06/18 01:06:52;;;;;;;12.15;7.50;;;20.30;71.20;;;;;;20745136;28;20112;-55
2021/06/18 01:17:08;;;;;;;9.55;6.80;;;20.40;71.20;;;;;;20753817;28;20509;-55
2021/06/18 01:27:46;;;;;;;9.02;6.78;;;20.30;70.90;;;;;;20760829;28;20085;-55
2021/06/18 01:37:56;;;;;;;7.95;6.30;;;20.40;70.80;;;;;;20760026;28;20435;-53
2021/06/18 01:48:02;;;;;;;10.23;6.30;;;20.30;70.70;;;;;;20758537;28;20505;-53
2021/06/18 01:58:09;;;;;;;7.47;5.32;;;20.30;70.30;;;;;;20756592;28;20054;-54
2021/06/18 02:08:14;;;;;;;7.47;4.75;;;20.30;70.00;;;;;;20756980;28;20069;-53
2021/06/18 02:18:23;;;;;;;6.57;4.05;;;20.30;69.30;;;;;;20755961;28;20068;-53
2021/06/18 02:28:27;;;;;;;8.30;4.25;;;20.40;68.40;;;;;;20754963;28;20532;-56
2021/06/18 02:38:31;;;;;;;5.53;4.13;;;20.40;67.40;;;;;;20754712;28;20562;-54
2021/06/18 02:48:41;;;;;;;5.65;3.97;;;20.40;67.70;;;;;;20753627;28;20506;-53
2021/06/18 02:58:56;;;;;;;7.00;4.50;;;20.40;67.60;;;;;;20753377;28;20054;-57
2021/06/18 03:09:00;;;;;;;7.78;5.00;;;20.40;67.70;;;;;;20751433;28;20050;-57
2021/06/18 03:19:07;;;;;;;4.80;4.22;;;20.20;68.00;;;;;;20751966;28;20422;-53
2021/06/18 03:29:10;;;;;;;5.82;4.05;;;20.10;68.70;;;;;;20751682;28;20387;-53
2021/06/18 03:39:11;;;;;;;5.40;3.90;;;20.00;68.10;;;;;;20750482;28;20482;-57
2021/06/18 03:49:14;;;;;;;6.78;4.70;;;19.90;68.10;;;;;;20750597;28;20080;-57
2021/06/18 03:59:16;;;;;;;6.07;4.50;;;19.90;68.50;;;;;;20749619;28;20141;-55
2021/06/18 04:09:18;;;;;;;11.00;7.43;;;19.90;68.10;;;;;;20748725;28;20053;-57
2021/06/18 04:19:23;;;;;;;9.85;8.07;;;19.80;68.80;;;;;;20747798;28;20088;-54
2021/06/18 04:29:39;;;;;;;11.93;8.80;;;19.70;69.50;;;;;;20747932;28;20088;-57
2021/06/18 04:39:54;;;;;;;10.75;8.90;;;19.60;70.20;;;;;;20747716;28;20057;-56
2021/06/18 04:50:15;;;;;;;13.47;9.43;;;19.70;70.20;;;;;;20754200;28;20073;-56
2021/06/18 05:00:33;;;;;;;15.18;9.68;;;19.60;70.10;;;;;;20762666;28;20474;-56
2021/06/18 05:10:43;;;;;;;13.50;10.27;;;19.50;70.40;;;;;;20761247;28;20863;-55
2021/06/18 05:20:47;;;;;;;12.43;9.45;;;19.40;70.60;;;;;;20760926;28;20054;-53
2021/06/18 05:30:53;;;;;;;14.90;10.23;;;19.40;70.70;;;;;;20760522;28;20054;-57
2021/06/18 05:41:06;;;;;;;11.13;9.53;;;19.50;70.50;;;;;;20759216;28;20046;-57
2021/06/18 05:51:16;;;;;;;12.20;8.45;;;19.60;70.20;;;;;;20758752;28;20045;-56
2021/06/18 06:01:24;;;;;;;28.30;23.05;;;19.60;70.10;;;;;;20756915;28;20474;-56
2021/06/18 06:11:34;;;;;;;9.10;7.07;;;19.70;69.00;;;;;;20757213;28;20145;-53
2021/06/18 06:21:41;;;;;;;9.77;7.32;;;20.00;68.10;;;;;;20756434;28;20418;-58
2021/06/18 06:31:45;;;;;;;9.43;6.43;;;20.10;67.50;;;;;;20756125;28;20077;-53
2021/06/18 06:41:49;;;;;;;7.55;6.07;;;20.20;66.90;;;;;;20753919;28;20088;-54
2021/06/18 06:51:52;;;;;;;9.60;5.40;;;20.50;66.10;;;;;;20754497;28;20506;-55
2021/06/18 07:01:56;;;;;;;8.38;5.90;;;21.00;64.30;;;;;;20752947;28;20061;-58
2021/06/18 07:11:58;;;;;;;7.47;6.07;;;21.40;63.00;;;;;;20752355;28;20124;-53
2021/06/18 07:22:01;;;;;;;7.93;5.40;;;21.60;62.50;;;;;;20750778;28;20057;-54
2021/06/18 07:32:04;;;;;;;9.05;6.20;;;21.60;62.40;;;;;;20750549;28;20080;-58
2021/06/18 07:42:06;;;;;;;12.70;6.93;;;21.40;63.00;;;;;;20749767;28;20053;-54
2021/06/18 07:52:09;;;;;;;8.02;5.53;;;21.50;63.20;;;;;;20749768;28;20085;-54
2021/06/18 08:02:11;;;;;;;7.77;4.70;;;21.60;62.30;;;;;;20748589;28;20379;-54
2021/06/18 08:12:13;;;;;;;7.50;4.33;;;22.10;60.90;;;;;;20747862;28;20125;-54
2021/06/18 08:22:16;;;;;;;13.30;7.67;;;22.20;59.50;;;;;;20748013;28;20366;-56
2021/06/18 08:32:19;;;;;;;9.25;6.25;;;22.40;59.60;;;;;;20747547;28;20076;-53
2021/06/18 08:42:23;;;;;;;7.00;4.55;;;22.40;60.10;;;;;;20746934;28;20498;-55
2021/06/18 08:52:25;;;;;;;6.07;4.82;;;22.40;58.90;;;;;;20746727;28;20074;-56
2021/06/18 09:02:27;;;;;;;7.10;3.67;;;22.40;58.10;;;;;;20747046;28;20053;-57
2021/06/18 09:12:30;;;;;;;8.63;3.15;;;22.50;57.00;;;;;;20745764;28;20065;-58
2021/06/18 09:22:40;;;;;;;5.30;2.87;;;22.60;56.00;;;;;;20745791;28;20050;-56
2021/06/18 09:32:58;;;;;;;5.68;3.00;;;22.90;54.80;;;;;;20745829;28;20038;-57
2021/06/18 09:43:15;;;;;;;6.63;3.53;;;23.40;54.30;;;;;;20758365;28;20050;-55
2021/06/18 09:53:24;;;;;;;4.75;2.50;;;23.60;53.70;;;;;;20759697;28;20442;-51
2021/06/18 10:03:26;;;;;;;4.47;2.22;;;23.80;52.70;;;;;;20757997;28;20470;-57
2021/06/18 10:13:27;;;;;;;3.92;1.85;;;23.90;52.80;;;;;;20757282;28;20093;-55
2021/06/18 10:23:30;;;;;;;2.57;1.70;;;24.10;52.50;;;;;;20754838;28;20477;-54
2021/06/18 10:33:31;;;;;;;5.65;1.95;;;25.10;50.00;;;;;;20754547;28;20046;-53
2021/06/18 10:43:38;;;;;;;4.67;2.03;;;25.20;49.50;;;;;;20754133;28;20092;-51
2021/06/18 10:53:52;;;;;;;4.47;2.30;;;25.40;48.90;;;;;;20752336;28;20380;-52
2021/06/18 11:03:56;;;;;;;8.98;2.42;;;25.60;48.30;;;;;;20746865;28;20152;-51
2021/06/18 11:14:09;;;;;;;7.70;2.40;;;25.70;47.70;;;;;;20749778;28;20092;-58
2021/06/18 11:24:10;;;;;;;7.53;2.60;;;26.00;47.00;;;;;;20750192;28;20089;-52
2021/06/18 11:34:28;;;;;;;3.87;2.27;;;26.10;46.60;;;;;;20762374;28;20056;-53
2021/06/18 11:44:30;;;;;;;13.13;3.05;;;26.40;45.50;;;;;;20830510;28;20370;-54
2021/06/18 11:54:37;;;;;;;9.20;3.22;;;26.50;46.20;;;;;;20815593;28;20496;-55
2021/06/18 12:04:38;;;;;;;6.97;3.35;;;26.60;46.20;;;;;;20742972;28;20519;-57
2021/06/18 12:14:43;;;;;;;6.22;2.50;;;26.60;44.30;;;;;;20746931;28;20081;-56
2021/06/18 12:25:05;;;;;;;4.88;2.42;;;26.60;44.40;;;;;;20747329;28;20046;-57
2021/06/18 12:35:10;;;;;;;5.55;2.75;;;26.70;44.20;;;;;;20747995;28;20391;-60
2021/06/18 12:45:16;;;;;;;6.18;2.42;;;26.70;43.90;;;;;;20747883;28;20112;-55
2021/06/18 12:55:45;;;;;;;4.80;2.65;;;26.80;43.30;;;;;;20746433;28;20050;-57
2021/06/18 13:05:54;;;;;;;7.03;2.40;;;27.10;41.30;;;;;;20745787;28;20050;-57
2021/06/18 13:16:13;;;;;;;3.20;2.15;;;27.10;40.90;;;;;;20761194;28;20057;-58
2021/06/18 13:26:15;;;;;;;7.10;2.40;;;27.20;40.70;;;;;;20761757;28;20065;-60
2021/06/18 13:36:30;;;;;;;6.05;2.65;;;27.30;39.80;;;;;;20761272;28;20042;-58
2021/06/18 13:46:31;;;;;;;3.63;2.00;;;27.40;38.50;;;;;;20759673;28;20163;-59
2021/06/18 13:56:32;;;;;;;5.80;2.03;;;27.60;38.10;;;;;;20759222;28;20050;-60
2021/06/18 14:06:36;;;;;;;3.67;2.30;;;27.60;38.50;;;;;;20758656;28;20053;-56
2021/06/18 14:16:46;;;;;;;6.28;2.22;;;27.40;37.80;;;;;;20756039;28;20315;-55
2021/06/18 14:26:48;;;;;;;5.03;2.40;;;27.50;37.60;;;;;;20756293;28;20514;-57
2021/06/18 14:36:50;;;;;;;5.78;2.25;;;27.70;36.40;;;;;;20755662;28;20045;-57
2021/06/18 14:46:52;;;;;;;5.30;2.22;;;27.60;36.20;;;;;;20755061;28;20092;-56
2021/06/18 14:56:54;;;;;;;4.28;1.95;;;27.70;36.60;;;;;;20753457;28;20072;-58
2021/06/18 15:06:56;;;;;;;4.30;2.00;;;27.60;36.30;;;;;;20751814;28;20390;-57
2021/06/18 15:16:58;;;;;;;5.10;2.25;;;27.80;36.60;;;;;;20752233;28;20150;-55
2021/06/18 15:27:00;;;;;;;5.28;2.28;;;27.90;36.90;;;;;;20751500;28;20050;-56
2021/06/18 15:37:03;;;;;;;6.60;2.60;;;27.60;37.20;;;;;;20750291;28;20072;-60
2021/06/18 15:47:04;;;;;;;5.07;2.20;;;27.60;37.30;;;;;;20750301;28;20486;-57
2021/06/18 15:57:06;;;;;;;3.08;1.80;;;27.20;42.50;;;;;;20749909;28;20053;-57
2021/06/18 16:07:08;;;;;;;3.55;1.80;;;26.50;44.70;;;;;;20748534;28;20085;-59
2021/06/18 16:17:10;;;;;;;3.65;1.92;;;26.20;45.20;;;;;;20748936;28;20054;-59
2021/06/18 16:27:12;;;;;;;3.25;1.80;;;26.00;46.90;;;;;;20748465;28;20069;-59
2021/06/18 16:37:14;;;;;;;2.33;1.65;;;25.80;46.60;;;;;;20747013;28;20057;-59
2021/06/18 16:47:16;;;;;;;2.83;1.40;;;25.70;46.20;;;;;;20756251;28;20544;-57
2021/06/18 16:57:17;;;;;;;3.45;1.48;;;25.60;46.20;;;;;;20762982;28;20049;-58
2021/06/18 17:07:23;;;;;;;2.65;1.83;;;25.40;44.50;;;;;;20763854;28;20050;-58
2021/06/18 17:17:26;;;;;;;2.28;1.17;;;25.40;43.80;;;;;;20761761;28;20068;-58
2021/06/18 17:27:27;;;;;;;;;;;25.30;43.90;;;;;;20761547;28;20050;-59
2021/06/18 17:37:29;;;;;;;1.40;0.83;;;24.80;42.40;;;;;;20759936;28;20309;-57
2021/06/18 17:47:32;;;;;;;3.28;1.23;;;24.90;42.30;;;;;;20759216;28;20046;-61
2021/06/18 17:57:35;;;;;;;3.65;1.10;;;24.70;42.70;;;;;;20757132;28;20102;-59
2021/06/18 18:07:38;;;;;;;1.98;1.08;;;24.70;42.00;;;;;;20758762;28;20046;-55
2021/06/18 18:17:40;;;;;;;5.30;3.20;;;24.70;42.50;;;;;;20757529;28;20073;-56
2021/06/18 18:27:42;;;;;;;1.87;1.10;;;24.70;42.00;;;;;;20755685;28;20070;-57
2021/06/18 18:37:44;;;;;;;1.45;0.82;;;24.40;41.10;;;;;;20755494;28;20057;-58
2021/06/18 18:47:46;;;;;;;1.98;1.38;;;24.30;40.90;;;;;;20755115;28;20891;-58
2021/06/18 18:57:48;;;;;;;;;;;23.90;41.20;;;;;;20754081;28;20089;-62
2021/06/18 19:07:50;;;;;;;1.65;1.20;;;23.80;41.90;;;;;;20753329;28;20385;-57
2021/06/18 19:17:52;;;;;;;1.57;0.80;;;23.70;41.20;;;;;;20752477;28;20153;-58
2021/06/18 19:27:53;;;;;;;2.30;1.50;;;23.40;41.10;;;;;;20752235;28;20314;-56
2021/06/18 19:37:55;;;;;;;3.03;1.50;;;23.20;41.60;;;;;;20751919;28;20049;-56
2021/06/18 19:47:58;;;;;;;2.38;1.55;;;23.10;42.10;;;;;;20751558;28;20042;-61
2021/06/18 19:58:00;;;;;;;4.10;1.57;;;23.10;42.50;;;;;;20750744;28;20046;-55
2021/06/18 20:08:02;;;;;;;4.00;1.70;;;23.10;43.50;;;;;;20749816;28;20054;-57
2021/06/18 20:18:04;;;;;;;2.50;1.47;;;23.00;43.40;;;;;;20748677;28;20069;-56
2021/06/18 20:28:08;;;;;;;3.95;1.73;;;23.00;43.60;;;;;;20748614;28;20045;-57
2021/06/18 20:38:11;;;;;;;2.63;1.30;;;22.90;44.10;;;;;;20747954;28;20438;-57
2021/06/18 20:48:13;;;;;;;3.75;1.80;;;22.90;43.40;;;;;;20746030;28;20073;-56
2021/06/18 20:58:15;;;;;;;4.43;2.90;;;22.70;44.50;;;;;;20746879;28;20053;-59
2021/06/18 21:08:17;;;;;;;3.33;2.13;;;22.70;43.80;;;;;;20746822;28;20299;-59
2021/06/18 21:18:19;;;;;;;2.63;2.07;;;22.60;44.20;;;;;;20746205;28;20064;-57
2021/06/18 21:28:22;;;;;;;2.70;1.87;;;22.40;44.40;;;;;;20746780;28;20042;-60
2021/06/18 21:38:25;;;;;;;3.30;2.00;;;22.20;45.60;;;;;;20760501;28;20514;-55
2021/06/18 21:48:26;;;;;;;;;;;22.10;45.80;;;;;;20760187;28;20065;-56
2021/06/18 21:58:28;;;;;;;2.95;1.40;;;21.80;46.10;;;;;;20759642;28;19936;-56
2021/06/18 22:08:30;;;;;;;2.50;1.70;;;21.90;47.30;;;;;;20758693;28;20068;-56
2021/06/18 22:18:32;;;;;;;2.33;1.40;;;21.60;47.50;;;;;;20758367;28;20058;-56
2021/06/18 22:28:34;;;;;;;2.17;1.40;;;21.40;47.60;;;;;;20758162;28;20049;-56
2021/06/18 22:38:36;;;;;;;2.17;1.35;;;21.40;48.10;;;;;;20755299;28;20474;-58
2021/06/18 22:48:38;;;;;;;2.20;1.20;;;21.20;48.10;;;;;;20755748;28;20100;-57
2021/06/18 22:58:39;;;;;;;2.08;1.20;;;21.20;48.30;;;;;;20756186;28;20053;-57
2021/06/18 23:08:41;;;;;;;2.65;1.08;;;21.00;48.70;;;;;;20754217;28;20169;-56
2021/06/18 23:18:43;;;;;;;3.47;1.55;;;21.00;48.80;;;;;;20752969;28;20073;-56
2021/06/18 23:28:45;;;;;;;2.70;1.88;;;20.90;49.20;;;;;;20753595;28;20501;-56
2021/06/18 23:38:47;;;;;;;2.45;1.50;;;20.70;49.80;;;;;;20751700;28;20078;-57
2021/06/18 23:48:50;;;;;;;2.00;1.27;;;20.70;50.00;;;;;;20750776;28;20058;-57
2021/06/18 23:58:51;;;;;;;2.45;1.58;;;20.70;49.90;;;;;;20749424;28;20136;-59
